Time;durP1;ratioP1;P1;durP2;ratioP2;P2;SDS_P1;SDS_P2;PMS_P1;PMS_P2;Temp;Humidity;BMP_temperature;BMP_pressure;BME280_temperature;BME280_humidity;BME280_pressure;Samples;Min_cycle;Max_cycle;Signal;HPM_P1;HPM_P2
2021/06/07 00:01:39;;;;;;;10.70;6.90;;;;;;;;;;5009310;28;20117;-61
2021/06/07 00:04:07;;;;;;;20.88;8.10;;;;;;;;;;5006702;28;20128;-61
2021/06/07 00:06:33;;;;;;;13.90;7.32;;;;;;;;;;5009127;28;20080;-61
2021/06/07 00:09:00;;;;;;;13.20;7.60;;;;;;;;;;5009344;28;20049;-61
2021/06/07 00:11:26;;;;;;;12.07;7.55;;;;;;;;;;5012649;28;20046;-61
2021/06/07 00:13:54;;;;;;;10.23;6.95;;;;;;;;;;5009366;28;20080;-61
2021/06/07 00:16:20;;;;;;;14.23;7.03;;;;;;;;;;5009918;28;20057;-60
2021/06/07 00:18:47;;;;;;;14.25;7.68;;;;;;;;;;5009059;28;20034;-61
2021/06/07 00:21:18;;;;;;;13.65;7.13;;;;;;;;;;5009150;28;20050;-60
2021/06/07 00:23:45;;;;;;;21.33;8.70;;;;;;;;;;5013949;28;20061;-61
2021/06/07 00:26:11;;;;;;;11.43;7.47;;;;;;;;;;5010607;28;20056;-61
2021/06/07 00:28:38;;;;;;;12.65;7.22;;;;;;;;;;5010952;28;20076;-61
2021/06/07 00:31:05;;;;;;;13.32;7.20;;;;;;;;;;5012777;28;20464;-61
2021/06/07 00:33:31;;;;;;;13.07;7.43;;;;;;;;;;5012943;28;20073;-61
2021/06/07 00:35:58;;;;;;;18.00;7.88;;;;;;;;;;5012812;28;20499;-61
2021/06/07 00:38:24;;;;;;;11.13;7.00;;;;;;;;;;5012379;28;20499;-60
2021/06/07 00:40:50;;;;;;;12.52;7.28;;;;;;;;;;5012550;28;20123;-61
2021/06/07 00:43:17;;;;;;;13.20;7.45;;;;;;;;;;5012561;28;20650;-61
2021/06/07 00:45:43;;;;;;;12.63;7.50;;;;;;;;;;5012620;28;20042;-61
2021/06/07 00:48:10;;;;;;;12.25;7.70;;;;;;;;;;5012708;28;20057;-61
2021/06/07 00:50:45;;;;;;;14.05;6.90;;;;;;;;;;5014871;28;21140;-61
2021/06/07 00:53:13;;;;;;;11.95;7.85;;;;;;;;;;5016211;28;20053;-61
2021/06/07 00:55:51;;;;;;;11.85;6.93;;;;;;;;;;5012921;28;20531;-61
2021/06/07 00:58:19;;;;;;;11.98;7.28;;;;;;;;;;5012428;28;20516;-61
2021/06/07 01:00:45;;;;;;;11.43;7.60;;;;;;;;;;5012415;28;20049;-61
2021/06/07 01:03:13;;;;;;;12.20;7.80;;;;;;;;;;5012280;28;20543;-61
2021/06/07 01:05:40;;;;;;;12.88;8.15;;;;;;;;;;5014561;28;20046;-61
2021/06/07 01:08:06;;;;;;;18.48;7.32;;;;;;;;;;5013675;28;20077;-61
2021/06/07 01:10:34;;;;;;;13.73;7.88;;;;;;;;;;5010765;28;20108;-60
2021/06/07 01:13:00;;;;;;;15.90;8.48;;;;;;;;;;5009481;28;20065;-61
2021/06/07 01:15:27;;;;;;;14.07;7.60;;;;;;;;;;5012246;28;20066;-61
2021/06/07 01:17:54;;;;;;;13.18;7.57;;;;;;;;;;5012494;28;20042;-61
2021/06/07 01:20:21;;;;;;;10.98;7.15;;;;;;;;;;5015599;28;20124;-61
2021/06/07 01:22:49;;;;;;;9.93;7.28;;;;;;;;;;5011762;28;20088;-61
2021/06/07 01:25:18;;;;;;;14.73;7.60;;;;;;;;;;5011862;28;20072;-61
2021/06/07 01:27:44;;;;;;;14.68;7.68;;;;;;;;;;5013655;28;20045;-61
2021/06/07 01:30:12;;;;;;;15.88;7.13;;;;;;;;;;5011856;28;20450;-61
2021/06/07 01:32:39;;;;;;;12.20;8.07;;;;;;;;;;5013277;28;20107;-61
2021/06/07 01:35:07;;;;;;;15.45;8.00;;;;;;;;;;5014660;28;20129;-61
2021/06/07 01:37:33;;;;;;;14.68;8.02;;;;;;;;;;5019399;28;20091;-61
2021/06/07 01:39:59;;;;;;;12.70;7.13;;;;;;;;;;5017251;28;20461;-61
2021/06/07 01:42:26;;;;;;;12.20;7.70;;;;;;;;;;5021927;28;20048;-61
2021/06/07 01:44:52;;;;;;;17.10;8.32;;;;;;;;;;5012606;28;20066;-61
2021/06/07 01:47:18;;;;;;;12.65;7.07;;;;;;;;;;5014509;28;20050;-60
2021/06/07 01:49:47;;;;;;;13.40;8.02;;;;;;;;;;5011287;28;20104;-60
2021/06/07 01:52:14;;;;;;;11.85;7.95;;;;;;;;;;5011341;28;20052;-61
2021/06/07 01:54:40;;;;;;;11.98;7.70;;;;;;;;;;5008622;28;20492;-61
2021/06/07 01:57:06;;;;;;;13.82;7.68;;;;;;;;;;5011173;28;20055;-60
2021/06/07 01:59:33;;;;;;;13.48;7.45;;;;;;;;;;5014000;28;20046;-60
2021/06/07 02:01:59;;;;;;;12.82;7.95;;;;;;;;;;5012266;28;20056;-61
2021/06/07 02:04:25;;;;;;;10.88;6.97;;;;;;;;;;5011261;28;20096;-61
2021/06/07 02:06:52;;;;;;;14.38;7.10;;;;;;;;;;5011103;28;20115;-61
2021/06/07 02:09:18;;;;;;;12.98;7.25;;;;;;;;;;5010309;28;20053;-61
2021/06/07 02:11:44;;;;;;;12.32;7.82;;;;;;;;;;5011898;28;20048;-61
2021/06/07 02:14:11;;;;;;;10.98;7.53;;;;;;;;;;5014724;28;20050;-60
2021/06/07 02:16:39;;;;;;;14.02;7.28;;;;;;;;;;5010909;28;20061;-60
2021/06/07 02:19:07;;;;;;;12.50;8.18;;;;;;;;;;5010650;28;20049;-61
2021/06/07 02:21:34;;;;;;;12.82;7.45;;;;;;;;;;5010780;28;20065;-61
2021/06/07 02:24:03;;;;;;;13.30;8.07;;;;;;;;;;5010866;28;20139;-60
2021/06/07 02:26:29;;;;;;;23.98;7.63;;;;;;;;;;5013765;28;20046;-60
2021/06/07 02:28:58;;;;;;;17.48;8.65;;;;;;;;;;5011377;28;20080;-61
2021/06/07 02:31:24;;;;;;;15.75;8.32;;;;;;;;;;5010622;28;20125;-61
2021/06/07 02:33:52;;;;;;;14.00;7.43;;;;;;;;;;5009586;28;20096;-60
2021/06/07 02:36:19;;;;;;;14.82;7.53;;;;;;;;;;5010457;28;20057;-60
2021/06/07 02:38:46;;;;;;;15.77;7.45;;;;;;;;;;5012359;28;20131;-61
2021/06/07 02:41:12;;;;;;;14.88;7.00;;;;;;;;;;5012630;28;20046;-60
2021/06/07 02:43:38;;;;;;;12.85;7.63;;;;;;;;;;5010326;28;20058;-60
2021/06/07 02:46:05;;;;;;;12.85;8.35;;;;;;;;;;5009715;28;20057;-61
2021/06/07 02:48:32;;;;;;;13.15;7.35;;;;;;;;;;5010416;28;20053;-61
2021/06/07 02:50:58;;;;;;;12.35;7.30;;;;;;;;;;5011203;28;20049;-61
2021/06/07 02:53:24;;;;;;;13.23;7.63;;;;;;;;;;5009896;28;20500;-61
2021/06/07 02:55:52;;;;;;;13.27;7.75;;;;;;;;;;5010224;28;20419;-60
2021/06/07 02:58:20;;;;;;;10.88;7.65;;;;;;;;;;5010070;28;20066;-61
2021/06/07 03:00:54;;;;;;;12.95;7.72;;;;;;;;;;5010079;28;20045;-61
2021/06/07 03:03:21;;;;;;;14.15;7.22;;;;;;;;;;5010178;28;20073;-61
2021/06/07 03:05:48;;;;;;;12.65;7.47;;;;;;;;;;5011265;28;20061;-61
2021/06/07 03:08:15;;;;;;;13.90;8.63;;;;;;;;;;5012301;28;20061;-61
2021/06/07 03:10:44;;;;;;;13.20;7.78;;;;;;;;;;5010655;28;20056;-61
2021/06/07 03:13:10;;;;;;;13.38;7.88;;;;;;;;;;5009755;28;20042;-61
2021/06/07 03:15:36;;;;;;;14.48;8.02;;;;;;;;;;5009333;28;20061;-61
2021/06/07 03:18:03;;;;;;;18.38;8.80;;;;;;;;;;5011157;28;20050;-61
2021/06/07 03:20:30;;;;;;;11.80;7.57;;;;;;;;;;5012018;28;20046;-61
2021/06/07 03:23:01;;;;;;;14.38;7.97;;;;;;;;;;5007897;28;20096;-60
2021/06/07 03:25:29;;;;;;;18.63;8.65;;;;;;;;;;5005877;28;20046;-61
2021/06/07 03:27:55;;;;;;;13.15;8.45;;;;;;;;;;5009494;28;20088;-61
2021/06/07 03:30:22;;;;;;;14.20;7.60;;;;;;;;;;5009694;28;20523;-61
2021/06/07 03:32:48;;;;;;;12.38;8.07;;;;;;;;;;5011208;28;20069;-60
2021/06/07 03:35:16;;;;;;;13.10;8.05;;;;;;;;;;5011352;28;20054;-60
2021/06/07 03:37:42;;;;;;;11.75;8.07;;;;;;;;;;5009306;28;20488;-61
2021/06/07 03:40:10;;;;;;;13.70;8.25;;;;;;;;;;5009276;28;20101;-61
2021/06/07 03:42:37;;;;;;;14.30;8.68;;;;;;;;;;5011153;28;20046;-61
2021/06/07 03:45:04;;;;;;;13.60;7.43;;;;;;;;;;5009656;28;20042;-61
2021/06/07 03:47:31;;;;;;;13.65;8.38;;;;;;;;;;5008162;28;20089;-61
2021/06/07 03:49:57;;;;;;;25.65;8.95;;;;;;;;;;5010773;28;20053;-60
2021/06/07 03:52:23;;;;;;;12.98;8.18;;;;;;;;;;5009342;28;20133;-60
2021/06/07 03:54:50;;;;;;;13.45;7.97;;;;;;;;;;5009343;28;20073;-61
2021/06/07 03:57:16;;;;;;;16.42;8.90;;;;;;;;;;5008799;28;20120;-61
2021/06/07 03:59:43;;;;;;;14.32;8.52;;;;;;;;;;5011142;28;20046;-61
2021/06/07 04:02:10;;;;;;;16.10;7.80;;;;;;;;;;5008450;28;20046;-61
2021/06/07 04:04:37;;;;;;;16.10;8.48;;;;;;;;;;5008177;28;20084;-60
2021/06/07 04:07:04;;;;;;;13.35;8.38;;;;;;;;;;5009192;28;20122;-61
2021/06/07 04:09:30;;;;;;;14.75;9.00;;;;;;;;;;5010453;28;20076;-61
2021/06/07 04:11:57;;;;;;;12.38;9.05;;;;;;;;;;5009313;28;20147;-61
2021/06/07 04:14:23;;;;;;;15.23;8.00;;;;;;;;;;5010767;28;20461;-60
2021/06/07 04:16:49;;;;;;;10.50;7.85;;;;;;;;;;5009557;28;20050;-61
2021/06/07 04:19:16;;;;;;;22.13;8.10;;;;;;;;;;5008132;28;20401;-61
2021/06/07 04:21:42;;;;;;;14.88;8.20;;;;;;;;;;5008605;28;20056;-61
2021/06/07 04:24:08;;;;;;;14.23;7.90;;;;;;;;;;5009148;28;20046;-61
2021/06/07 04:26:36;;;;;;;13.00;7.93;;;;;;;;;;5010641;28;20041;-61
2021/06/07 04:29:02;;;;;;;15.10;8.70;;;;;;;;;;4994292;28;20050;-61
2021/06/07 04:31:29;;;;;;;10.85;7.72;;;;;;;;;;5003183;28;20448;-62
2021/06/07 04:33:55;;;;;;;12.15;8.00;;;;;;;;;;5005941;28;20053;-61
2021/06/07 04:36:21;;;;;;;16.80;7.55;;;;;;;;;;5000907;28;20530;-61
2021/06/07 04:38:48;;;;;;;14.77;8.07;;;;;;;;;;5008118;28;20058;-61
2021/06/07 04:41:14;;;;;;;14.05;7.82;;;;;;;;;;5006329;28;20046;-61
2021/06/07 04:43:40;;;;;;;12.82;7.03;;;;;;;;;;5003631;28;20507;-61
2021/06/07 04:46:07;;;;;;;16.63;7.35;;;;;;;;;;4998284;28;20077;-60
2021/06/07 04:48:33;;;;;;;12.02;6.90;;;;;;;;;;5003274;28;20046;-61
2021/06/07 04:50:59;;;;;;;11.73;6.43;;;;;;;;;;5008915;28;20043;-61
2021/06/07 04:53:26;;;;;;;8.20;5.32;;;;;;;;;;5007671;28;20093;-61
2021/06/07 04:55:53;;;;;;;8.35;5.18;;;;;;;;;;5003710;28;20042;-61
2021/06/07 04:58:26;;;;;;;8.18;5.38;;;;;;;;;;4998805;28;20058;-62
2021/06/07 05:01:15;;;;;;;9.50;5.72;;;;;;;;;;5004554;28;20512;-61
2021/06/07 05:03:41;;;;;;;12.65;5.50;;;;;;;;;;5003093;28;20050;-61
2021/06/07 05:06:07;;;;;;;11.02;6.50;;;;;;;;;;5006282;28;20042;-61
2021/06/07 05:08:34;;;;;;;6.93;4.63;;;;;;;;;;5007959;28;20072;-61
2021/06/07 05:11:00;;;;;;;8.68;5.28;;;;;;;;;;5009939;28;20065;-61
2021/06/07 05:13:27;;;;;;;11.00;5.43;;;;;;;;;;5013873;28;20057;-61
2021/06/07 05:15:54;;;;;;;8.07;4.97;;;;;;;;;;5005183;28;20484;-61
2021/06/07 05:18:20;;;;;;;8.90;5.50;;;;;;;;;;4997198;28;20515;-61
2021/06/07 05:20:47;;;;;;;6.78;4.53;;;;;;;;;;4995168;28;20082;-61
2021/06/07 05:23:13;;;;;;;7.80;5.25;;;;;;;;;;4997933;28;20129;-61
2021/06/07 05:25:40;;;;;;;7.53;5.15;;;;;;;;;;4998578;28;20073;-61
2021/06/07 05:28:08;;;;;;;7.57;5.65;;;;;;;;;;4998249;28;20085;-61
2021/06/07 05:30:35;;;;;;;8.25;4.97;;;;;;;;;;4999940;28;20041;-61
2021/06/07 05:33:02;;;;;;;9.85;5.28;;;;;;;;;;5000129;28;20057;-61
2021/06/07 05:35:30;;;;;;;9.77;5.50;;;;;;;;;;5013567;28;20069;-62
2021/06/07 05:37:58;;;;;;;7.90;5.18;;;;;;;;;;5013943;28;20049;-61
2021/06/07 05:40:25;;;;;;;10.70;4.80;;;;;;;;;;5012835;28;20046;-61
2021/06/07 05:42:52;;;;;;;7.90;5.90;;;;;;;;;;5013105;28;20092;-62
2021/06/07 05:45:20;;;;;;;9.55;4.88;;;;;;;;;;5012789;28;20050;-62
2021/06/07 05:47:46;;;;;;;7.03;4.85;;;;;;;;;;5012594;28;20041;-61
2021/06/07 05:50:15;;;;;;;7.82;5.35;;;;;;;;;;5014137;28;20139;-61
2021/06/07 05:52:48;;;;;;;8.18;4.78;;;;;;;;;;5011532;28;20196;-61
2021/06/07 05:55:14;;;;;;;9.00;5.47;;;;;;;;;;5011216;28;20518;-62
2021/06/07 05:57:41;;;;;;;8.00;5.22;;;;;;;;;;5010434;28;20503;-61
2021/06/07 06:00:07;;;;;;;10.43;5.03;;;;;;;;;;5010887;28;20132;-62
2021/06/07 06:02:34;;;;;;;11.40;5.32;;;;;;;;;;5013002;28;20061;-62
2021/06/07 06:05:00;;;;;;;6.88;5.05;;;;;;;;;;5012376;28;20535;-61
2021/06/07 06:07:26;;;;;;;10.18;5.07;;;;;;;;;;5011516;28;20439;-62
2021/06/07 06:09:53;;;;;;;5.43;4.05;;;;;;;;;;5009979;28;20061;-61
2021/06/07 06:12:19;;;;;;;7.53;4.65;;;;;;;;;;5009033;28;20037;-61
2021/06/07 06:14:45;;;;;;;8.88;5.07;;;;;;;;;;5009304;28;20130;-61
2021/06/07 06:17:12;;;;;;;6.85;4.50;;;;;;;;;;5012241;28;20073;-62
2021/06/07 06:19:38;;;;;;;7.78;4.80;;;;;;;;;;5008861;28;20049;-60
2021/06/07 06:22:05;;;;;;;7.88;4.60;;;;;;;;;;5010067;28;20519;-62
2021/06/07 06:24:32;;;;;;;9.35;4.38;;;;;;;;;;5019068;28;20046;-62
2021/06/07 06:26:59;;;;;;;6.55;4.55;;;;;;;;;;5002285;28;20041;-61
2021/06/07 06:29:25;;;;;;;6.40;4.30;;;;;;;;;;5008728;28;21273;-62
2021/06/07 06:31:51;;;;;;;6.45;4.15;;;;;;;;;;5008336;28;20164;-62
2021/06/07 06:34:18;;;;;;;8.20;3.92;;;;;;;;;;5005217;28;20057;-62
2021/06/07 06:36:44;;;;;;;7.05;4.22;;;;;;;;;;5005217;28;20042;-62
2021/06/07 06:39:10;;;;;;;8.38;3.97;;;;;;;;;;5007958;28;20501;-62
2021/06/07 06:41:37;;;;;;;14.43;3.83;;;;;;;;;;5009874;28;20052;-62
2021/06/07 06:44:03;;;;;;;5.70;4.05;;;;;;;;;;5006085;28;20042;-62
2021/06/07 06:46:30;;;;;;;7.82;3.88;;;;;;;;;;5004445;28;20080;-61
2021/06/07 06:48:56;;;;;;;6.70;4.18;;;;;;;;;;4993007;28;20041;-62
2021/06/07 06:51:23;;;;;;;9.13;3.72;;;;;;;;;;5010001;28;20632;-62
2021/06/07 06:53:49;;;;;;;7.30;4.10;;;;;;;;;;5006108;28;20077;-62
2021/06/07 06:56:16;;;;;;;6.72;3.63;;;;;;;;;;5010156;28;20077;-62
2021/06/07 06:58:42;;;;;;;8.98;4.00;;;;;;;;;;4999384;28;20062;-62
2021/06/07 07:01:08;;;;;;;8.93;3.80;;;;;;;;;;4997971;28;20050;-62
2021/06/07 07:03:35;;;;;;;11.95;3.97;;;;;;;;;;4997945;28;20080;-62
2021/06/07 07:06:01;;;;;;;6.35;4.25;;;;;;;;;;4994034;28;20048;-62
2021/06/07 07:08:29;;;;;;;5.35;3.70;;;;;;;;;;4997227;28;20054;-62
2021/06/07 07:10:56;;;;;;;20.13;4.30;;;;;;;;;;4998681;28;20133;-62
2021/06/07 07:13:23;;;;;;;4.43;3.33;;;;;;;;;;5009559;28;20038;-62
2021/06/07 07:15:49;;;;;;;4.70;3.65;;;;;;;;;;5006315;28;20069;-61
2021/06/07 07:18:15;;;;;;;5.07;3.90;;;;;;;;;;4996106;28;20065;-62
2021/06/07 07:20:42;;;;;;;7.28;3.38;;;;;;;;;;4994907;28;20050;-61
2021/06/07 07:23:09;;;;;;;6.55;3.25;;;;;;;;;;5012965;28;20073;-62
2021/06/07 07:25:35;;;;;;;4.88;3.40;;;;;;;;;;5006117;28;20492;-62
2021/06/07 07:28:01;;;;;;;4.47;3.17;;;;;;;;;;5007347;28;20069;-62
2021/06/07 07:30:30;;;;;;;10.07;3.80;;;;;;;;;;4997305;28;20049;-62
2021/06/07 07:32:56;;;;;;;4.75;3.60;;;;;;;;;;4993394;28;20042;-62
2021/06/07 07:35:23;;;;;;;6.07;3.65;;;;;;;;;;5012335;28;20100;-62
2021/06/07 07:37:50;;;;;;;6.55;3.60;;;;;;;;;;5008774;28;20042;-62
2021/06/07 07:40:18;;;;;;;4.25;3.20;;;;;;;;;;5008604;28;20046;-62
2021/06/07 07:42:45;;;;;;;6.93;4.18;;;;;;;;;;5008679;28;20037;-62
2021/06/07 07:45:12;;;;;;;5.03;2.97;;;;;;;;;;5008772;28;20045;-62
2021/06/07 07:47:39;;;;;;;5.57;3.30;;;;;;;;;;5010411;28;20053;-62
2021/06/07 07:50:07;;;;;;;5.80;3.50;;;;;;;;;;5007586;28;20046;-62
2021/06/07 07:52:33;;;;;;;6.93;3.60;;;;;;;;;;5009143;28;20046;-61
2021/06/07 07:54:59;;;;;;;6.63;3.53;;;;;;;;;;5007745;28;20431;-62
2021/06/07 07:57:26;;;;;;;6.43;3.00;;;;;;;;;;5007664;28;20061;-62
2021/06/07 07:59:52;;;;;;;5.47;3.38;;;;;;;;;;5009065;28;20062;-62
2021/06/07 08:02:19;;;;;;;4.30;3.47;;;;;;;;;;5008541;28;20050;-62
2021/06/07 08:04:47;;;;;;;4.82;3.17;;;;;;;;;;5008919;28;20515;-62
2021/06/07 08:07:13;;;;;;;3.42;2.70;;;;;;;;;;5008391;28;20053;-61
2021/06/07 08:09:40;;;;;;;4.22;3.35;;;;;;;;;;5010045;28;20477;-62
2021/06/07 08:12:06;;;;;;;4.05;2.90;;;;;;;;;;5009262;28;20046;-62
2021/06/07 08:14:33;;;;;;;4.20;3.63;;;;;;;;;;5010974;28;20077;-61
2021/06/07 08:16:59;;;;;;;8.07;3.40;;;;;;;;;;5009217;28;20396;-62
2021/06/07 08:19:26;;;;;;;4.60;3.00;;;;;;;;;;5008194;28;20088;-62
2021/06/07 08:21:53;;;;;;;4.22;3.08;;;;;;;;;;5009752;28;20054;-62
2021/06/07 08:24:19;;;;;;;5.35;2.67;;;;;;;;;;5008092;28;20056;-62
2021/06/07 08:26:46;;;;;;;5.47;2.80;;;;;;;;;;5009837;28;20049;-62
2021/06/07 08:29:12;;;;;;;7.78;3.03;;;;;;;;;;5010858;28;20516;-62
2021/06/07 08:31:39;;;;;;;4.70;2.97;;;;;;;;;;5008091;28;20072;-62
2021/06/07 08:34:06;;;;;;;4.53;2.92;;;;;;;;;;5008110;28;20099;-62
2021/06/07 08:36:32;;;;;;;4.63;3.00;;;;;;;;;;5008133;28;20034;-62
2021/06/07 08:38:59;;;;;;;9.95;3.05;;;;;;;;;;5009411;28;20050;-62
2021/06/07 08:41:25;;;;;;;4.70;3.13;;;;;;;;;;5007967;28;20053;-62
2021/06/07 08:43:52;;;;;;;3.72;2.58;;;;;;;;;;5010422;28;20046;-62
2021/06/07 08:46:18;;;;;;;4.68;2.67;;;;;;;;;;5013448;28;20096;-63
2021/06/07 08:48:45;;;;;;;3.13;2.47;;;;;;;;;;5012476;28;20126;-62
2021/06/07 08:51:11;;;;;;;6.90;3.50;;;;;;;;;;5012548;28;20043;-62
2021/06/07 08:53:38;;;;;;;11.07;2.95;;;;;;;;;;5014395;28;20092;-62
2021/06/07 08:56:04;;;;;;;4.05;3.00;;;;;;;;;;5013653;28;20112;-62
2021/06/07 08:58:31;;;;;;;6.05;3.00;;;;;;;;;;5011951;28;20097;-62
2021/06/07 09:00:58;;;;;;;3.65;2.85;;;;;;;;;;5011259;28;20033;-62
2021/06/07 09:03:29;;;;;;;3.38;2.67;;;;;;;;;;5012316;28;20080;-62
2021/06/07 09:05:56;;;;;;;6.88;2.78;;;;;;;;;;5012704;28;20076;-62
2021/06/07 09:08:25;;;;;;;4.80;3.03;;;;;;;;;;5015311;28;20092;-62
2021/06/07 09:10:53;;;;;;;3.67;2.75;;;;;;;;;;5012241;28;20049;-62
2021/06/07 09:13:21;;;;;;;4.25;2.60;;;;;;;;;;5011997;28;20099;-62
2021/06/07 09:15:49;;;;;;;4.05;3.25;;;;;;;;;;5011905;28;20064;-62
2021/06/07 09:18:30;;;;;;;5.60;3.17;;;;;;;;;;5012533;28;20057;-61
2021/06/07 09:21:02;;;;;;;4.20;3.33;;;;;;;;;;4997245;28;20049;-62
2021/06/07 09:23:39;;;;;;;4.85;3.00;;;;;;;;;;5015383;28;20046;-62
2021/06/07 09:26:07;;;;;;;4.80;2.70;;;;;;;;;;5012929;28;20565;-62
2021/06/07 09:28:38;;;;;;;4.70;2.95;;;;;;;;;;5012996;28;20571;-62
2021/06/07 09:31:08;;;;;;;3.42;3.00;;;;;;;;;;5011771;28;20115;-62
2021/06/07 09:33:35;;;;;;;4.32;2.80;;;;;;;;;;5011564;28;20046;-62
2021/06/07 09:36:09;;;;;;;3.85;2.78;;;;;;;;;;5011395;28;20050;-61
2021/06/07 09:38:35;;;;;;;;;;;;;;;;;;5010740;28;20065;-62
2021/06/07 09:41:02;;;;;;;5.05;2.97;;;;;;;;;;5014040;28;19925;-62
2021/06/07 09:43:46;;;;;;;5.40;3.20;;;;;;;;;;5011604;28;20042;-62
2021/06/07 09:46:12;;;;;;;3.85;3.10;;;;;;;;;;5011358;28;20042;-62
2021/06/07 09:48:39;;;;;;;3.50;2.90;;;;;;;;;;5011401;28;20037;-62
2021/06/07 09:51:05;;;;;;;4.80;3.40;;;;;;;;;;5012388;28;20050;-62
2021/06/07 09:53:39;;;;;;;6.38;2.78;;;;;;;;;;5013216;28;20045;-62
2021/06/07 09:56:05;;;;;;;4.28;2.67;;;;;;;;;;5014498;28;20061;-63
2021/06/07 09:58:32;;;;;;;3.38;2.80;;;;;;;;;;5010819;28;20112;-62
2021/06/07 10:00:58;;;;;;;2.83;2.42;;;;;;;;;;5011643;28;20042;-63
2021/06/07 10:03:32;;;;;;;5.70;2.83;;;;;;;;;;5013015;28;20491;-62
2021/06/07 10:06:00;;;;;;;7.63;3.40;;;;;;;;;;4995391;28;20046;-63
2021/06/07 10:08:39;;;;;;;3.17;2.60;;;;;;;;;;5010333;28;20504;-63
2021/06/07 10:11:15;;;;;;;3.47;2.70;;;;;;;;;;5008949;28;20439;-63
2021/06/07 10:13:42;;;;;;;3.92;2.60;;;;;;;;;;5010898;28;20058;-62
2021/06/07 10:16:09;;;;;;;3.63;2.95;;;;;;;;;;5010750;28;20046;-62
2021/06/07 10:18:35;;;;;;;6.93;2.90;;;;;;;;;;5010751;28;20108;-63
2021/06/07 10:21:04;;;;;;;3.58;2.90;;;;;;;;;;5010644;28;20069;-61
2021/06/07 10:23:32;;;;;;;5.47;2.72;;;;;;;;;;5014066;28;20454;-63
2021/06/07 10:26:00;;;;;;;3.20;2.80;;;;;;;;;;5011815;28;20454;-63
2021/06/07 10:28:28;;;;;;;3.63;2.70;;;;;;;;;;5010318;28;20049;-63
2021/06/07 10:30:56;;;;;;;4.70;2.72;;;;;;;;;;5010785;28;20041;-63
2021/06/07 10:33:26;;;;;;;3.75;2.67;;;;;;;;;;5010671;28;20042;-63
2021/06/07 10:35:53;;;;;;;5.10;3.00;;;;;;;;;;5011047;28;20104;-62
2021/06/07 10:38:29;;;;;;;5.07;2.33;;;;;;;;;;5013769;28;20068;-63
2021/06/07 10:41:15;;;;;;;3.55;2.40;;;;;;;;;;5011922;28;20055;-62
2021/06/07 10:43:43;;;;;;;3.53;2.70;;;;;;;;;;5008161;28;20085;-62
2021/06/07 10:46:28;;;;;;;5.72;2.55;;;;;;;;;;5010375;28;20046;-63
2021/06/07 10:48:55;;;;;;;8.32;2.30;;;;;;;;;;5010129;28;20042;-63
2021/06/07 10:51:23;;;;;;;4.97;2.90;;;;;;;;;;5010368;28;20050;-62
2021/06/07 10:53:53;;;;;;;7.10;3.17;;;;;;;;;;5011426;28;20195;-62
2021/06/07 10:56:26;;;;;;;3.40;2.67;;;;;;;;;;5012900;28;20045;-62
2021/06/07 10:58:56;;;;;;;4.13;2.83;;;;;;;;;;5011028;28;20457;-62
2021/06/07 11:01:23;;;;;;;3.65;2.65;;;;;;;;;;5010025;28;20050;-63
2021/06/07 11:03:54;;;;;;;5.45;2.35;;;;;;;;;;5009413;28;20542;-63
2021/06/07 11:06:20;;;;;;;5.03;3.05;;;;;;;;;;5010719;28;20060;-62
2021/06/07 11:09:00;;;;;;;4.60;2.78;;;;;;;;;;5011229;28;20061;-63
2021/06/07 11:11:49;;;;;;;6.85;2.72;;;;;;;;;;5009108;28;20522;-62
2021/06/07 11:14:18;;;;;;;4.00;2.70;;;;;;;;;;5011957;28;20050;-63
2021/06/07 11:16:46;;;;;;;4.90;2.67;;;;;;;;;;5010771;28;20058;-63
2021/06/07 11:19:18;;;;;;;4.43;2.42;;;;;;;;;;5010332;28;20041;-62
2021/06/07 11:21:47;;;;;;;3.45;2.70;;;;;;;;;;5009851;28;20485;-63
2021/06/07 11:24:26;;;;;;;5.72;2.80;;;;;;;;;;5009655;28;20054;-62
2021/06/07 11:26:52;;;;;;;3.33;2.67;;;;;;;;;;5010973;28;20073;-63
2021/06/07 11:29:19;;;;;;;3.13;2.40;;;;;;;;;;5013141;28;20053;-62
2021/06/07 11:31:51;;;;;;;3.42;2.50;;;;;;;;;;5009340;28;20412;-63
2021/06/07 11:34:40;;;;;;;4.70;2.90;;;;;;;;;;5009611;28;20061;-63
2021/06/07 11:37:08;;;;;;;4.03;2.60;;;;;;;;;;4985434;28;20111;-63
2021/06/07 11:39:37;;;;;;;2.83;2.53;;;;;;;;;;5009614;28;20042;-63
2021/06/07 11:42:04;;;;;;;3.33;2.72;;;;;;;;;;5009584;28;20038;-63
2021/06/07 11:44:46;;;;;;;4.38;2.67;;;;;;;;;;5012565;28;20126;-63
2021/06/07 11:47:12;;;;;;;2.90;2.50;;;;;;;;;;5011050;28;20049;-63
2021/06/07 11:49:56;;;;;;;5.60;2.45;;;;;;;;;;5008816;28;20385;-63
2021/06/07 11:52:32;;;;;;;5.25;2.40;;;;;;;;;;5009130;28;20400;-63
2021/06/07 11:54:59;;;;;;;4.43;2.70;;;;;;;;;;5010063;28;20049;-63
2021/06/07 11:57:26;;;;;;;3.47;2.58;;;;;;;;;;5009997;28;20077;-62
2021/06/07 11:59:56;;;;;;;2.95;2.50;;;;;;;;;;5010294;28;20054;-62
2021/06/07 12:02:24;;;;;;;4.28;2.72;;;;;;;;;;5012178;28;20046;-62
2021/06/07 12:04:51;;;;;;;4.57;2.88;;;;;;;;;;5009013;28;20046;-63
2021/06/07 12:07:17;;;;;;;3.80;2.55;;;;;;;;;;5009035;28;20041;-62
2021/06/07 12:09:53;;;;;;;5.13;2.60;;;;;;;;;;5008818;28;20050;-63
2021/06/07 12:12:19;;;;;;;3.00;2.40;;;;;;;;;;5008956;28;20074;-63
2021/06/07 12:14:46;;;;;;;4.40;2.60;;;;;;;;;;5008808;28;20838;-63
2021/06/07 12:17:17;;;;;;;5.20;2.50;;;;;;;;;;5010594;28;20156;-62
2021/06/07 12:19:44;;;;;;;5.07;2.63;;;;;;;;;;5012917;28;20056;-62
2021/06/07 12:22:26;;;;;;;4.32;2.35;;;;;;;;;;5013154;28;20045;-62
2021/06/07 12:24:55;;;;;;;3.45;2.38;;;;;;;;;;5013039;28;20061;-63
2021/06/07 12:30:17;;;;;;;4.25;2.50;;;;;;;;;;5000637;28;20037;-63
2021/06/07 12:32:44;;;;;;;6.00;2.63;;;;;;;;;;5013965;28;20439;-63
2021/06/07 12:35:13;;;;;;;5.95;2.92;;;;;;;;;;5014502;28;20493;-62
2021/06/07 12:37:56;;;;;;;5.00;2.55;;;;;;;;;;5013630;28;20135;-62
2021/06/07 12:40:31;;;;;;;3.45;2.63;;;;;;;;;;5012845;28;20073;-62
2021/06/07 12:43:18;;;;;;;3.83;2.42;;;;;;;;;;5009914;28;20068;-62
2021/06/07 12:45:54;;;;;;;3.45;2.65;;;;;;;;;;5012524;28;20045;-63
2021/06/07 12:48:27;;;;;;;4.15;2.78;;;;;;;;;;5012751;28;20129;-63
2021/06/07 12:51:04;;;;;;;3.85;2.67;;;;;;;;;;5013461;28;20050;-63
2021/06/07 12:53:31;;;;;;;2.53;2.20;;;;;;;;;;5015981;28;20053;-62
2021/06/07 12:56:02;;;;;;;4.70;2.78;;;;;;;;;;5012979;28;20432;-62
2021/06/07 12:58:29;;;;;;;3.58;2.63;;;;;;;;;;5012517;28;20111;-62
2021/06/07 13:01:03;;;;;;;3.75;2.55;;;;;;;;;;5011770;28;20042;-63
2021/06/07 13:03:31;;;;;;;5.15;2.75;;;;;;;;;;5014189;28;20046;-62
2021/06/07 13:06:03;;;;;;;5.90;2.85;;;;;;;;;;5011654;28;20054;-62
2021/06/07 13:08:29;;;;;;;2.90;2.47;;;;;;;;;;5015693;28;20542;-63
2021/06/07 13:10:56;;;;;;;3.55;2.70;;;;;;;;;;5012766;28;20062;-63
2021/06/07 13:13:24;;;;;;;6.47;2.75;;;;;;;;;;5012910;28;20217;-62
2021/06/07 13:15:56;;;;;;;4.60;2.70;;;;;;;;;;5013038;28;20045;-62
2021/06/07 13:18:23;;;;;;;4.80;2.20;;;;;;;;;;5012160;28;20069;-62
2021/06/07 13:21:03;;;;;;;2.85;2.30;;;;;;;;;;5012492;28;20654;-62
2021/06/07 13:23:37;;;;;;;3.85;2.78;;;;;;;;;;5015645;28;20057;-63
2021/06/07 13:26:16;;;;;;;10.45;2.88;;;;;;;;;;5013354;28;20057;-62
2021/06/07 13:28:42;;;;;;;5.50;2.40;;;;;;;;;;5010140;28;20066;-62
2021/06/07 13:31:08;;;;;;;3.17;2.40;;;;;;;;;;5011498;28;20042;-62
2021/06/07 13:33:39;;;;;;;9.05;3.15;;;;;;;;;;5011728;28;20057;-62
2021/06/07 13:36:06;;;;;;;6.03;2.35;;;;;;;;;;5011852;28;20325;-62
2021/06/07 13:38:40;;;;;;;2.45;2.03;;;;;;;;;;5014669;28;20052;-63
2021/06/07 13:41:11;;;;;;;3.72;2.40;;;;;;;;;;5012854;28;20053;-63
2021/06/07 13:43:38;;;;;;;5.57;2.63;;;;;;;;;;5011397;28;20045;-62
2021/06/07 13:46:04;;;;;;;3.05;2.63;;;;;;;;;;5011364;28;20435;-62
2021/06/07 13:48:35;;;;;;;3.65;2.40;;;;;;;;;;5011227;28;20074;-62
2021/06/07 13:51:02;;;;;;;5.40;2.60;;;;;;;;;;5012275;28;20403;-62
2021/06/07 13:53:34;;;;;;;4.15;2.30;;;;;;;;;;5015299;28;20496;-62
2021/06/07 13:56:03;;;;;;;5.67;2.70;;;;;;;;;;5014698;28;20606;-62
2021/06/07 13:58:40;;;;;;;3.42;2.53;;;;;;;;;;5010157;28;20049;-62
2021/06/07 14:01:07;;;;;;;3.40;2.20;;;;;;;;;;5011468;28;20046;-62
2021/06/07 14:03:35;;;;;;;3.33;2.70;;;;;;;;;;5010967;28;20038;-62
2021/06/07 14:06:03;;;;;;;5.10;2.72;;;;;;;;;;5009397;28;20349;-61
2021/06/07 14:08:34;;;;;;;5.43;2.67;;;;;;;;;;5029358;28;20037;-62
2021/06/07 14:11:10;;;;;;;5.00;2.30;;;;;;;;;;5011989;28;20419;-62
2021/06/07 14:13:38;;;;;;;3.20;2.25;;;;;;;;;;5010908;28;20520;-62
2021/06/07 14:16:04;;;;;;;3.83;2.53;;;;;;;;;;5010829;28;20458;-60
2021/06/07 14:18:31;;;;;;;4.13;2.53;;;;;;;;;;5010382;28;20099;-60
2021/06/07 14:20:59;;;;;;;4.60;2.45;;;;;;;;;;5011284;28;20057;-61
2021/06/07 14:26:17;;;;;;;6.75;2.58;;;;;;;;;;5012608;28;20077;-60
2021/06/07 14:28:44;;;;;;;3.17;2.35;;;;;;;;;;5007837;28;20050;-60
2021/06/07 14:31:10;;;;;;;8.27;2.70;;;;;;;;;;5011389;28;20045;-60
2021/06/07 14:33:37;;;;;;;3.15;2.42;;;;;;;;;;5011493;28;20057;-61
2021/06/07 14:36:04;;;;;;;2.90;2.55;;;;;;;;;;5010639;28;20513;-59
2021/06/07 14:38:31;;;;;;;4.53;2.78;;;;;;;;;;5013372;28;20057;-60
2021/06/07 14:41:09;;;;;;;45.75;4.13;;;;;;;;;;5009859;28;20057;-60
2021/06/07 14:43:39;;;;;;;5.55;3.17;;;;;;;;;;5010319;28;20124;-60
2021/06/07 14:46:06;;;;;;;7.60;2.92;;;;;;;;;;5010056;28;20046;-60
2021/06/07 14:48:33;;;;;;;3.65;2.55;;;;;;;;;;5007854;28;20033;-61
2021/06/07 14:51:03;;;;;;;3.78;2.92;;;;;;;;;;5008722;28;20553;-60